Time;durP1;ratioP1;P1;durP2;ratioP2;P2;SDS_P1;SDS_P2;PMS_P1;PMS_P2;Temp;Humidity;BMP_temperature;BMP_pressure;BME280_temperature;BME280_humidity;BME280_pressure;Samples;Min_cycle;Max_cycle;Signal;HPM_P1;HPM_P2
2021/12/28 00:01:52;;;;;;;55.27;20.60;;;;;;;;;;5070245;28;20079;-73
2021/12/28 00:04:17;;;;;;;63.27;24.00;;;;;;;;;;5068738;28;20382;-73
2021/12/28 00:06:46;;;;;;;56.43;20.30;;;;;;;;;;5069357;28;20469;-72
2021/12/28 00:09:12;;;;;;;60.07;21.83;;;;;;;;;;5068859;28;20027;-74
2021/12/28 00:11:37;;;;;;;64.83;24.40;;;;;;;;;;5069512;28;20605;-74
2021/12/28 00:14:06;;;;;;;62.83;21.93;;;;;;;;;;5069315;28;20035;-74
2021/12/28 00:16:35;;;;;;;59.67;23.53;;;;;;;;;;5069335;28;20028;-75
2021/12/28 00:19:02;;;;;;;62.13;23.37;;;;;;;;;;5069013;28;20476;-72
2021/12/28 00:21:28;;;;;;;63.03;21.97;;;;;;;;;;5069830;28;20233;-74
2021/12/28 00:23:53;;;;;;;50.63;21.37;;;;;;;;;;5068945;28;20035;-74
2021/12/28 00:26:22;;;;;;;60.67;21.93;;;;;;;;;;5069942;28;20028;-73
2021/12/28 00:28:48;;;;;;;48.60;19.57;;;;;;;;;;5068780;28;20185;-73
2021/12/28 00:31:15;;;;;;;54.60;20.53;;;;;;;;;;5070018;28;20021;-73
2021/12/28 00:33:41;;;;;;;60.37;21.47;;;;;;;;;;5070185;28;20024;-74
2021/12/28 00:36:07;;;;;;;66.10;21.57;;;;;;;;;;5068138;28;20071;-74
2021/12/28 00:38:33;;;;;;;53.03;20.63;;;;;;;;;;5068462;28;20542;-73
2021/12/28 00:41:01;;;;;;;58.97;20.93;;;;;;;;;;5069655;28;20017;-73
2021/12/28 00:43:28;;;;;;;63.63;21.93;;;;;;;;;;5068890;28;20024;-73
2021/12/28 00:45:54;;;;;;;59.00;24.83;;;;;;;;;;5068690;28;20500;-72
2021/12/28 00:48:20;;;;;;;59.33;21.67;;;;;;;;;;5070451;28;20036;-73
2021/12/28 00:50:46;;;;;;;53.73;21.50;;;;;;;;;;5069135;28;20024;-73
2021/12/28 00:53:12;;;;;;;61.80;20.87;;;;;;;;;;5068117;28;20048;-73
2021/12/28 00:55:38;;;;;;;53.37;21.93;;;;;;;;;;5069696;28;20056;-73
2021/12/28 00:58:04;;;;;;;59.40;22.10;;;;;;;;;;5068406;28;20020;-74
2021/12/28 01:00:33;;;;;;;55.07;20.53;;;;;;;;;;5069277;28;20035;-73
2021/12/28 01:03:00;;;;;;;59.77;22.30;;;;;;;;;;5069705;28;20017;-73
2021/12/28 01:05:27;;;;;;;55.97;19.53;;;;;;;;;;5069664;28;20025;-73
2021/12/28 01:07:55;;;;;;;58.53;20.57;;;;;;;;;;5068237;28;20086;-73
2021/12/28 01:10:38;;;;;;;53.43;20.07;;;;;;;;;;5067984;28;20388;-73
2021/12/28 01:13:04;;;;;;;59.90;21.27;;;;;;;;;;5068406;28;20082;-74
2021/12/28 01:15:31;;;;;;;61.03;20.73;;;;;;;;;;5067966;28;20029;-72
2021/12/28 01:17:57;;;;;;;55.23;20.00;;;;;;;;;;5068237;28;20411;-73
2021/12/28 01:20:24;;;;;;;51.70;20.93;;;;;;;;;;5068154;28;20556;-73
2021/12/28 01:22:50;;;;;;;45.63;17.67;;;;;;;;;;5069644;28;20400;-73
2021/12/28 01:25:17;;;;;;;54.80;19.30;;;;;;;;;;5070017;28;20020;-74
2021/12/28 01:27:43;;;;;;;51.37;18.33;;;;;;;;;;5069877;28;20487;-74
2021/12/28 01:30:10;;;;;;;49.97;17.33;;;;;;;;;;5069340;28;20029;-75
2021/12/28 01:32:36;;;;;;;47.37;18.77;;;;;;;;;;5070727;28;20111;-73
2021/12/28 01:35:04;;;;;;;47.97;17.73;;;;;;;;;;5071780;28;20052;-73
2021/12/28 01:37:30;;;;;;;50.50;19.07;;;;;;;;;;5072800;28;20025;-73
2021/12/28 01:39:55;;;;;;;47.13;17.03;;;;;;;;;;5070744;28;20027;-74
2021/12/28 01:42:21;;;;;;;50.03;17.87;;;;;;;;;;5069978;28;20146;-73
2021/12/28 01:44:46;;;;;;;46.03;17.93;;;;;;;;;;5068558;28;20031;-74
2021/12/28 01:47:15;;;;;;;44.80;16.33;;;;;;;;;;5069717;28;20142;-74
2021/12/28 01:49:41;;;;;;;49.57;17.60;;;;;;;;;;5068282;28;20025;-74
2021/12/28 01:52:07;;;;;;;51.27;18.63;;;;;;;;;;5068305;28;20510;-75
2021/12/28 01:54:33;;;;;;;47.43;16.80;;;;;;;;;;5067777;28;20070;-73
2021/12/28 01:56:58;;;;;;;47.60;18.03;;;;;;;;;;5067956;28;20145;-74
2021/12/28 01:59:24;;;;;;;50.33;18.20;;;;;;;;;;5069139;28;20032;-72
2021/12/28 02:01:50;;;;;;;47.70;18.60;;;;;;;;;;5069356;28;20064;-73
2021/12/28 02:04:28;;;;;;;51.50;18.07;;;;;;;;;;5067643;28;20502;-74
2021/12/28 02:07:02;;;;;;;52.13;18.37;;;;;;;;;;5071709;28;20025;-73
2021/12/28 02:09:27;;;;;;;53.70;18.37;;;;;;;;;;5072707;28;20021;-72
2021/12/28 02:11:53;;;;;;;55.67;18.63;;;;;;;;;;5072868;28;20093;-72
2021/12/28 02:14:20;;;;;;;45.07;17.70;;;;;;;;;;5070839;28;20400;-73
2021/12/28 02:16:46;;;;;;;50.20;17.93;;;;;;;;;;5071438;28;20062;-73
2021/12/28 02:19:13;;;;;;;50.87;18.17;;;;;;;;;;5072073;28;20020;-73
2021/12/28 02:21:39;;;;;;;47.07;18.17;;;;;;;;;;5071059;28;20457;-72
2021/12/28 02:24:07;;;;;;;48.20;18.37;;;;;;;;;;5071386;28;20078;-72
2021/12/28 02:26:32;;;;;;;53.57;17.83;;;;;;;;;;5071540;28;20028;-73
2021/12/28 02:28:59;;;;;;;44.87;17.60;;;;;;;;;;5073868;28;20434;-72
2021/12/28 02:31:26;;;;;;;52.23;18.80;;;;;;;;;;5074828;28;20027;-72
2021/12/28 02:33:52;;;;;;;56.77;19.10;;;;;;;;;;5074524;28;20062;-73
2021/12/28 02:36:18;;;;;;;45.93;17.27;;;;;;;;;;5072238;28;20025;-73
2021/12/28 02:38:45;;;;;;;50.73;18.77;;;;;;;;;;5072381;28;20017;-72
2021/12/28 02:41:11;;;;;;;47.27;17.93;;;;;;;;;;5070674;28;20123;-73
2021/12/28 02:43:39;;;;;;;50.30;18.00;;;;;;;;;;5072091;28;20108;-73
2021/12/28 02:46:06;;;;;;;49.37;17.67;;;;;;;;;;5072046;28;20104;-73
2021/12/28 02:48:33;;;;;;;54.40;17.97;;;;;;;;;;5071515;28;20104;-73
2021/12/28 02:51:10;;;;;;;60.67;18.93;;;;;;;;;;5071834;28;20028;-73
2021/12/28 02:53:36;;;;;;;39.10;16.70;;;;;;;;;;5071804;28;20028;-72
2021/12/28 02:56:03;;;;;;;60.00;17.10;;;;;;;;;;5071796;28;20077;-72
2021/12/28 02:58:41;;;;;;;42.90;16.90;;;;;;;;;;5071469;28;20206;-73
2021/12/28 03:01:09;;;;;;;50.07;17.77;;;;;;;;;;5069908;28;20048;-72
2021/12/28 03:03:37;;;;;;;46.37;18.80;;;;;;;;;;5070980;28;20056;-72
2021/12/28 03:06:05;;;;;;;52.80;16.73;;;;;;;;;;5071639;28;20044;-74
2021/12/28 03:08:32;;;;;;;53.47;18.80;;;;;;;;;;5069742;28;20039;-72
2021/12/28 03:11:01;;;;;;;52.23;20.00;;;;;;;;;;5070124;28;20024;-73
2021/12/28 03:13:39;;;;;;;49.57;18.83;;;;;;;;;;5069867;28;20034;-72
2021/12/28 03:16:06;;;;;;;49.80;20.37;;;;;;;;;;5069874;28;20029;-73
2021/12/28 03:18:33;;;;;;;62.43;20.20;;;;;;;;;;5071190;28;20036;-72
2021/12/28 03:20:58;;;;;;;45.20;19.70;;;;;;;;;;5071138;28;20479;-73
2021/12/28 03:23:26;;;;;;;57.00;19.60;;;;;;;;;;5069454;28;20024;-73
2021/12/28 03:25:52;;;;;;;59.57;20.10;;;;;;;;;;5069801;28;20024;-72
2021/12/28 03:28:23;;;;;;;49.63;18.90;;;;;;;;;;5069436;28;20028;-73
2021/12/28 03:30:50;;;;;;;53.03;18.43;;;;;;;;;;5071166;28;20021;-73
2021/12/28 03:33:15;;;;;;;56.00;19.97;;;;;;;;;;5071005;28;20032;-72
2021/12/28 03:35:41;;;;;;;63.83;20.03;;;;;;;;;;5070831;28;20064;-73
2021/12/28 03:38:07;;;;;;;48.27;18.17;;;;;;;;;;5069625;28;20089;-73
2021/12/28 03:40:33;;;;;;;53.60;19.73;;;;;;;;;;5069928;28;20020;-72
2021/12/28 03:42:59;;;;;;;51.37;19.77;;;;;;;;;;5074378;28;20369;-72
2021/12/28 03:45:25;;;;;;;53.90;22.03;;;;;;;;;;5076778;28;20117;-73
2021/12/28 03:47:50;;;;;;;51.93;18.70;;;;;;;;;;5074404;28;20071;-72
2021/12/28 03:50:18;;;;;;;50.83;20.03;;;;;;;;;;5075775;28;20393;-73
2021/12/28 03:52:46;;;;;;;49.63;19.20;;;;;;;;;;5070547;28;20489;-72
2021/12/28 03:55:12;;;;;;;54.20;19.67;;;;;;;;;;5069469;28;20067;-72
2021/12/28 03:57:39;;;;;;;45.60;18.03;;;;;;;;;;5070574;28;20056;-73
2021/12/28 04:00:08;;;;;;;52.57;19.33;;;;;;;;;;5069067;28;20039;-73
2021/12/28 04:02:34;;;;;;;53.13;18.33;;;;;;;;;;5053034;28;20085;-72
2021/12/28 04:04:59;;;;;;;55.00;18.57;;;;;;;;;;5072048;28;20040;-73
2021/12/28 04:07:25;;;;;;;54.77;19.40;;;;;;;;;;5070040;28;20035;-72
2021/12/28 04:12:21;;;;;;;49.23;18.53;;;;;;;;;;5069310;28;20375;-72
2021/12/28 04:14:46;;;;;;;49.93;19.20;;;;;;;;;;5070006;28;20035;-72
2021/12/28 04:17:12;;;;;;;57.73;19.67;;;;;;;;;;5068330;28;20028;-72
2021/12/28 04:19:38;;;;;;;45.50;17.90;;;;;;;;;;5068513;28;20383;-72
2021/12/28 04:22:04;;;;;;;45.33;18.13;;;;;;;;;;5069882;28;20028;-71
2021/12/28 04:24:30;;;;;;;38.43;17.47;;;;;;;;;;5068776;28;20021;-72
2021/12/28 04:26:55;;;;;;;57.93;20.23;;;;;;;;;;5070098;28;20031;-72
2021/12/28 04:29:21;;;;;;;52.43;18.97;;;;;;;;;;5067486;28;20028;-72
2021/12/28 04:31:47;;;;;;;46.50;17.80;;;;;;;;;;5070052;28;20427;-72
2021/12/28 04:34:12;;;;;;;46.13;17.80;;;;;;;;;;5070106;28;20048;-73
2021/12/28 04:36:38;;;;;;;44.87;18.27;;;;;;;;;;5070090;28;20028;-73
2021/12/28 04:39:05;;;;;;;44.77;18.03;;;;;;;;;;5069279;28;20127;-71
2021/12/28 04:41:32;;;;;;;43.40;17.97;;;;;;;;;;5069759;28;20393;-72
2021/12/28 04:44:00;;;;;;;41.70;17.07;;;;;;;;;;5068544;28;20476;-73
2021/12/28 04:46:26;;;;;;;43.87;18.87;;;;;;;;;;5068159;28;20024;-71
2021/12/28 04:48:52;;;;;;;44.33;17.70;;;;;;;;;;5068410;28;20024;-72
2021/12/28 04:51:17;;;;;;;45.60;17.93;;;;;;;;;;5069782;28;20358;-72
2021/12/28 04:53:43;;;;;;;42.13;16.43;;;;;;;;;;5068349;28;20036;-73
2021/12/28 04:56:09;;;;;;;42.63;18.70;;;;;;;;;;5068402;28;20024;-72
2021/12/28 04:58:34;;;;;;;41.43;17.23;;;;;;;;;;5067809;28;20548;-72
2021/12/28 05:01:00;;;;;;;55.70;18.23;;;;;;;;;;5069792;28;20032;-72
2021/12/28 05:03:25;;;;;;;48.50;18.73;;;;;;;;;;5069441;28;20416;-72
2021/12/28 05:05:51;;;;;;;46.77;17.53;;;;;;;;;;5068116;28;20032;-71
2021/12/28 05:08:19;;;;;;;50.60;19.00;;;;;;;;;;5068060;28;20491;-72
2021/12/28 05:10:45;;;;;;;50.17;19.07;;;;;;;;;;5068077;28;20020;-71
2021/12/28 05:13:11;;;;;;;50.00;18.23;;;;;;;;;;5068426;28;20420;-71
2021/12/28 05:15:38;;;;;;;45.57;17.07;;;;;;;;;;5069278;28;20036;-72
2021/12/28 05:18:05;;;;;;;43.47;17.27;;;;;;;;;;5069204;28;20469;-73
2021/12/28 05:20:31;;;;;;;47.33;18.10;;;;;;;;;;5067938;28;20473;-72
2021/12/28 05:22:57;;;;;;;46.43;18.50;;;;;;;;;;5068211;28;20039;-72
2021/12/28 05:25:22;;;;;;;43.77;17.60;;;;;;;;;;5067883;28;20032;-73
2021/12/28 05:27:48;;;;;;;46.30;17.70;;;;;;;;;;5069216;28;20032;-73
2021/12/28 05:30:14;;;;;;;44.07;18.23;;;;;;;;;;5067863;28;20024;-72
2021/12/28 05:32:39;;;;;;;48.63;18.43;;;;;;;;;;5067896;28;20035;-73
2021/12/28 05:35:06;;;;;;;45.47;18.67;;;;;;;;;;5069439;28;20064;-72
2021/12/28 05:37:32;;;;;;;40.83;18.47;;;;;;;;;;5067995;28;20056;-72
2021/12/28 05:39:58;;;;;;;50.97;18.87;;;;;;;;;;5068939;28;20047;-72
2021/12/28 05:42:24;;;;;;;46.13;17.83;;;;;;;;;;5073049;28;20028;-73
2021/12/28 05:44:50;;;;;;;43.77;17.33;;;;;;;;;;5072916;28;20119;-72
2021/12/28 05:47:16;;;;;;;44.20;16.80;;;;;;;;;;5072977;28;20111;-73
2021/12/28 05:49:42;;;;;;;45.87;18.00;;;;;;;;;;5072756;28;20051;-73
2021/12/28 05:52:08;;;;;;;41.50;17.57;;;;;;;;;;5071550;28;20465;-72
2021/12/28 05:54:34;;;;;;;42.03;18.07;;;;;;;;;;5072655;28;20058;-72
2021/12/28 05:56:59;;;;;;;54.80;18.43;;;;;;;;;;5071330;28;20032;-72
2021/12/28 05:59:25;;;;;;;43.90;18.87;;;;;;;;;;5072480;28;20059;-72
2021/12/28 06:01:50;;;;;;;41.30;16.63;;;;;;;;;;5072420;28;20033;-73
2021/12/28 06:04:16;;;;;;;46.03;18.10;;;;;;;;;;5071127;28;20515;-73
2021/12/28 06:06:42;;;;;;;42.70;16.27;;;;;;;;;;5071201;28;20453;-73
2021/12/28 06:09:07;;;;;;;38.10;15.57;;;;;;;;;;5071149;28;20036;-71
2021/12/28 06:11:33;;;;;;;45.30;15.63;;;;;;;;;;5071192;28;20052;-73
2021/12/28 06:13:58;;;;;;;49.07;17.50;;;;;;;;;;5071210;28;20028;-72
2021/12/28 06:16:24;;;;;;;43.67;16.07;;;;;;;;;;5072168;28;20052;-72
2021/12/28 06:18:49;;;;;;;43.33;15.10;;;;;;;;;;5072150;28;20358;-72
2021/12/28 06:21:16;;;;;;;45.50;16.90;;;;;;;;;;5071859;28;20024;-72
2021/12/28 06:23:42;;;;;;;42.37;17.60;;;;;;;;;;5070612;28;20025;-72
2021/12/28 06:26:07;;;;;;;40.90;15.23;;;;;;;;;;5072248;28;20028;-71
2021/12/28 06:28:33;;;;;;;42.33;16.47;;;;;;;;;;5070439;28;20119;-72
2021/12/28 06:30:59;;;;;;;38.90;17.17;;;;;;;;;;5071901;28;20035;-71
2021/12/28 06:33:25;;;;;;;45.17;16.30;;;;;;;;;;5074652;28;20082;-72
2021/12/28 06:35:51;;;;;;;52.17;18.77;;;;;;;;;;5074725;28;20060;-72
2021/12/28 06:38:18;;;;;;;42.37;15.00;;;;;;;;;;5073077;28;20484;-73
2021/12/28 06:40:44;;;;;;;47.60;18.40;;;;;;;;;;5070304;28;20028;-73
2021/12/28 06:43:10;;;;;;;40.90;16.43;;;;;;;;;;5071846;28;20028;-72
2021/12/28 06:45:36;;;;;;;39.83;14.47;;;;;;;;;;5069961;28;20459;-72
2021/12/28 06:48:02;;;;;;;40.47;17.00;;;;;;;;;;5070490;28;20427;-73
2021/12/28 06:50:28;;;;;;;40.63;16.30;;;;;;;;;;5070116;28;20029;-72
2021/12/28 06:52:54;;;;;;;39.07;16.73;;;;;;;;;;5069893;28;20081;-72
2021/12/28 06:55:19;;;;;;;38.90;15.23;;;;;;;;;;5069997;28;20032;-73
2021/12/28 06:57:45;;;;;;;38.97;15.80;;;;;;;;;;5071162;28;20136;-72
2021/12/28 07:00:14;;;;;;;43.07;15.33;;;;;;;;;;5071274;28;20033;-73
2021/12/28 07:02:42;;;;;;;41.33;16.87;;;;;;;;;;5071039;28;20033;-72
2021/12/28 07:05:09;;;;;;;38.03;14.97;;;;;;;;;;5071228;28;20082;-72
2021/12/28 07:07:35;;;;;;;36.57;14.27;;;;;;;;;;5069891;28;20024;-73
2021/12/28 07:10:01;;;;;;;36.77;16.37;;;;;;;;;;5066513;28;20093;-73
2021/12/28 07:12:27;;;;;;;38.63;14.77;;;;;;;;;;5089374;28;20101;-73
2021/12/28 07:14:53;;;;;;;40.60;16.37;;;;;;;;;;5089890;28;20051;-72
2021/12/28 07:17:19;;;;;;;35.33;14.87;;;;;;;;;;5074829;28;20468;-73
2021/12/28 07:19:46;;;;;;;40.20;15.07;;;;;;;;;;5070078;28;20039;-73
2021/12/28 07:22:12;;;;;;;48.33;18.50;;;;;;;;;;5068930;28;20479;-72
2021/12/28 07:24:37;;;;;;;41.73;15.20;;;;;;;;;;5068979;28;20032;-73
2021/12/28 07:27:03;;;;;;;39.37;14.63;;;;;;;;;;5067155;28;20110;-73
2021/12/28 07:29:29;;;;;;;33.90;15.27;;;;;;;;;;5068375;28;20081;-73
2021/12/28 07:31:55;;;;;;;40.87;15.90;;;;;;;;;;5068543;28;20024;-73
2021/12/28 07:34:20;;;;;;;45.13;15.73;;;;;;;;;;5069852;28;20559;-73
2021/12/28 07:36:46;;;;;;;44.13;15.73;;;;;;;;;;5069145;28;20036;-73
2021/12/28 07:39:12;;;;;;;41.50;15.03;;;;;;;;;;5069795;28;20028;-73
2021/12/28 07:41:37;;;;;;;39.07;16.23;;;;;;;;;;5069543;28;20034;-72
2021/12/28 07:44:04;;;;;;;46.37;16.17;;;;;;;;;;5070292;28;20353;-73
2021/12/28 07:46:29;;;;;;;36.03;14.33;;;;;;;;;;5069849;28;20024;-73
2021/12/28 07:48:55;;;;;;;38.40;15.07;;;;;;;;;;5068757;28;20576;-72
2021/12/28 07:51:21;;;;;;;38.73;15.70;;;;;;;;;;5069354;28;20115;-73
2021/12/28 07:53:46;;;;;;;43.67;17.87;;;;;;;;;;5068675;28;20107;-72
2021/12/28 07:56:12;;;;;;;32.57;15.50;;;;;;;;;;5068463;28;20028;-73
2021/12/28 07:58:38;;;;;;;33.33;15.07;;;;;;;;;;5068398;28;20476;-75
2021/12/28 08:01:04;;;;;;;40.10;16.43;;;;;;;;;;5068466;28;20067;-72
2021/12/28 08:03:29;;;;;;;39.90;15.40;;;;;;;;;;5067112;28;20016;-73
2021/12/28 08:05:55;;;;;;;34.50;14.70;;;;;;;;;;5067693;28;20051;-73
2021/12/28 08:08:21;;;;;;;39.70;16.10;;;;;;;;;;5067433;28;20074;-73
2021/12/28 08:10:47;;;;;;;31.13;14.53;;;;;;;;;;5069136;28;20028;-72
2021/12/28 08:13:13;;;;;;;42.70;16.40;;;;;;;;;;5067339;28;20035;-72
2021/12/28 08:15:39;;;;;;;40.03;14.97;;;;;;;;;;5066985;28;20071;-73
2021/12/28 08:18:07;;;;;;;35.93;15.00;;;;;;;;;;5067357;28;20028;-73
2021/12/28 08:20:33;;;;;;;33.20;14.87;;;;;;;;;;5067688;28;20485;-73
2021/12/28 08:22:59;;;;;;;36.47;14.70;;;;;;;;;;5069282;28;20119;-73
2021/12/28 08:25:26;;;;;;;34.17;15.13;;;;;;;;;;5070385;28;20032;-73
2021/12/28 08:27:52;;;;;;;36.47;16.07;;;;;;;;;;5069472;28;20032;-73
2021/12/28 08:30:19;;;;;;;47.20;16.53;;;;;;;;;;5068659;28;20295;-72
2021/12/28 08:32:46;;;;;;;28.30;14.37;;;;;;;;;;5069675;28;20066;-72
2021/12/28 08:35:12;;;;;;;33.50;14.03;;;;;;;;;;5069093;28;20048;-72
2021/12/28 08:37:38;;;;;;;37.97;16.07;;;;;;;;;;5067542;28;20093;-73
2021/12/28 08:40:06;;;;;;;37.50;15.03;;;;;;;;;;5068513;28;20059;-72
2021/12/28 08:42:31;;;;;;;40.87;15.83;;;;;;;;;;5067098;28;20055;-74
2021/12/28 08:44:57;;;;;;;36.30;14.40;;;;;;;;;;5068709;28;20387;-73
2021/12/28 08:47:26;;;;;;;42.77;14.97;;;;;;;;;;5068799;28;20033;-73
2021/12/28 08:49:53;;;;;;;39.37;15.53;;;;;;;;;;5068540;28;20036;-72
2021/12/28 08:52:19;;;;;;;71.43;17.30;;;;;;;;;;5067383;28;20426;-73
2021/12/28 08:54:45;;;;;;;33.40;13.57;;;;;;;;;;5068400;28;20033;-73
2021/12/28 08:57:10;;;;;;;37.57;14.43;;;;;;;;;;5067286;28;20032;-72
2021/12/28 08:59:36;;;;;;;33.53;14.40;;;;;;;;;;5068640;28;20452;-72
2021/12/28 09:02:01;;;;;;;33.77;13.60;;;;;;;;;;5068523;28;20033;-73
2021/12/28 09:04:27;;;;;;;36.97;15.10;;;;;;;;;;5068544;28;20312;-72
2021/12/28 09:06:52;;;;;;;34.33;14.93;;;;;;;;;;5068160;28;20150;-73
2021/12/28 09:09:18;;;;;;;35.87;15.43;;;;;;;;;;5067341;28;20036;-73
2021/12/28 09:11:43;;;;;;;33.50;13.33;;;;;;;;;;5066689;28;20032;-72
2021/12/28 09:14:10;;;;;;;39.67;15.43;;;;;;;;;;5068450;28;20085;-74
2021/12/28 09:16:36;;;;;;;34.90;15.70;;;;;;;;;;5071602;28;20484;-74
2021/12/28 09:19:02;;;;;;;33.83;14.03;;;;;;;;;;5071099;28;20040;-72
2021/12/28 09:21:27;;;;;;;36.70;15.23;;;;;;;;;;5072915;28;20040;-73
2021/12/28 09:23:53;;;;;;;34.03;15.60;;;;;;;;;;5071070;28;20029;-73
2021/12/28 09:26:18;;;;;;;34.70;16.73;;;;;;;;;;5071005;28;20385;-72
2021/12/28 09:28:47;;;;;;;37.97;15.80;;;;;;;;;;5071345;28;20070;-74
2021/12/28 09:31:14;;;;;;;43.10;17.03;;;;;;;;;;5070795;28;20032;-73
2021/12/28 09:33:41;;;;;;;39.30;17.10;;;;;;;;;;5072237;28;20111;-72
2021/12/28 09:36:09;;;;;;;39.27;16.27;;;;;;;;;;5072162;28;20136;-73
2021/12/28 09:38:35;;;;;;;39.90;16.97;;;;;;;;;;5071274;28;20495;-73
2021/12/28 09:41:01;;;;;;;40.47;16.97;;;;;;;;;;5070855;28;20388;-72
2021/12/28 09:43:27;;;;;;;43.37;16.53;;;;;;;;;;5072271;28;20046;-73
2021/12/28 09:45:52;;;;;;;45.23;17.77;;;;;;;;;;5071950;28;20205;-72
2021/12/28 09:48:18;;;;;;;38.30;16.40;;;;;;;;;;5071102;28;20097;-72
2021/12/28 09:50:43;;;;;;;38.37;16.67;;;;;;;;;;5070851;28;20028;-72
2021/12/28 09:53:13;;;;;;;37.77;16.83;;;;;;;;;;5070751;28;20032;-73
2021/12/28 09:55:41;;;;;;;38.67;16.70;;;;;;;;;;5070987;28;20039;-73
2021/12/28 09:58:06;;;;;;;36.03;15.00;;;;;;;;;;5072262;28;20376;-73
2021/12/28 10:00:32;;;;;;;38.40;16.20;;;;;;;;;;5072099;28;20032;-74
2021/12/28 10:02:58;;;;;;;36.07;16.00;;;;;;;;;;5070494;28;20388;-72
2021/12/28 10:05:25;;;;;;;43.07;16.83;;;;;;;;;;5071982;28;20554;-73
2021/12/28 10:07:57;;;;;;;41.03;16.83;;;;;;;;;;5069326;28;20060;-73
2021/12/28 10:10:27;;;;;;;37.58;16.80;;;;;;;;;;5064754;28;20024;-74
2021/12/28 10:12:55;;;;;;;37.97;16.03;;;;;;;;;;5070301;28;20553;-72
2021/12/28 10:15:23;;;;;;;45.93;17.27;;;;;;;;;;5071874;28;20108;-73
2021/12/28 10:17:51;;;;;;;39.73;16.57;;;;;;;;;;5071726;28;20092;-73
2021/12/28 10:20:54;;;;;;;48.17;19.20;;;;;;;;;;5069812;28;20059;-73
2021/12/28 10:23:26;;;;;;;41.40;15.98;;;;;;;;;;5055670;28;20029;-73
2021/12/28 10:25:54;;;;;;;39.13;17.03;;;;;;;;;;5069430;28;20028;-73
2021/12/28 10:28:35;;;;;;;38.53;16.60;;;;;;;;;;5070939;28;20452;-73
2021/12/28 10:31:07;;;;;;;39.97;16.10;;;;;;;;;;5070510;28;20012;-73
2021/12/28 10:33:36;;;;;;;43.20;14.80;;;;;;;;;;5069883;28;20016;-73
2021/12/28 10:36:08;;;;;;;38.73;16.10;;;;;;;;;;5068050;28;20040;-75
2021/12/28 10:38:37;;;;;;;37.80;15.88;;;;;;;;;;5075235;28;20457;-74
2021/12/28 10:41:12;;;;;;;41.37;16.47;;;;;;;;;;5073472;28;20592;-74
2021/12/28 10:43:40;;;;;;;43.23;15.73;;;;;;;;;;5072996;28;20045;-73
2021/12/28 10:46:14;;;;;;;35.83;15.17;;;;;;;;;;5075972;28;20319;-73
2021/12/28 10:48:46;;;;;;;41.07;16.77;;;;;;;;;;5075906;28;20476;-74
2021/12/28 10:51:15;;;;;;;41.40;17.57;;;;;;;;;;5072690;28;20102;-75
2021/12/28 10:56:57;;;;;;;44.70;16.93;;;;;;;;;;5071758;28;20411;-74
2021/12/28 10:59:25;;;;;;;39.57;16.73;;;;;;;;;;5071628;28;20028;-74
2021/12/28 11:01:51;;;;;;;33.60;15.50;;;;;;;;;;5071588;28;20127;-73
2021/12/28 11:04:18;;;;;;;43.27;17.03;;;;;;;;;;5070895;28;20027;-73
2021/12/28 11:06:53;;;;;;;36.00;15.40;;;;;;;;;;5071765;28;20024;-74
2021/12/28 11:09:24;;;;;;;44.00;16.23;;;;;;;;;;5053567;28;20043;-75
2021/12/28 11:11:55;;;;;;;46.25;17.98;;;;;;;;;;5070865;28;20031;-73
2021/12/28 11:14:24;;;;;;;33.37;15.47;;;;;;;;;;5071001;28;20068;-75
2021/12/28 11:16:54;;;;;;;43.97;14.70;;;;;;;;;;5071088;28;20100;-74
2021/12/28 11:19:28;;;;;;;36.77;17.57;;;;;;;;;;5055253;28;20082;-74
2021/12/28 11:22:01;;;;;;;34.47;15.43;;;;;;;;;;5051293;28;20519;-74
2021/12/28 11:24:36;;;;;;;40.47;16.87;;;;;;;;;;5070028;28;20152;-75
2021/12/28 11:27:04;;;;;;;41.83;16.47;;;;;;;;;;5071507;28;20017;-74
2021/12/28 11:29:32;;;;;;;37.47;16.13;;;;;;;;;;5069615;28;20074;-73
2021/12/28 11:32:04;;;;;;;36.20;15.50;;;;;;;;;;5071144;28;20068;-75
2021/12/28 11:34:33;;;;;;;39.63;15.20;;;;;;;;;;5068971;28;20044;-75
2021/12/28 11:37:09;;;;;;;46.53;16.90;;;;;;;;;;5068921;28;20119;-76
2021/12/28 11:39:39;;;;;;;41.77;17.00;;;;;;;;;;5070747;28;20032;-74
2021/12/28 11:42:07;;;;;;;41.20;17.92;;;;;;;;;;5071004;28;20059;-73
2021/12/28 11:44:35;;;;;;;36.30;15.60;;;;;;;;;;5067556;28;20476;-75
2021/12/28 11:47:01;;;;;;;43.03;16.40;;;;;;;;;;5068977;28;20447;-74
2021/12/28 11:49:28;;;;;;;34.50;16.20;;;;;;;;;;5068334;28;20033;-74
2021/12/28 11:52:01;;;;;;;33.47;15.40;;;;;;;;;;5066800;28;20448;-74
2021/12/28 11:54:30;;;;;;;38.77;17.53;;;;;;;;;;5067165;28;20025;-73
2021/12/28 11:57:05;;;;;;;41.23;16.47;;;;;;;;;;5067021;28;20044;-74
2021/12/28 11:59:32;;;;;;;38.60;15.03;;;;;;;;;;5069729;28;20448;-74
2021/12/28 12:02:00;;;;;;;39.87;16.33;;;;;;;;;;5068362;28;20063;-74
2021/12/28 12:04:32;;;;;;;34.33;15.73;;;;;;;;;;5066073;28;20032;-73
2021/12/28 12:07:01;;;;;;;37.92;17.40;;;;;;;;;;5065731;28;20119;-74
2021/12/28 12:09:28;;;;;;;38.17;17.07;;;;;;;;;;5068639;28;20464;-73
2021/12/28 12:12:09;;;;;;;37.00;17.07;;;;;;;;;;5068641;28;20025;-73
2021/12/28 12:15:00;;;;;;;38.47;16.40;;;;;;;;;;5068977;28;20028;-73
2021/12/28 12:17:29;;;;;;;44.90;17.33;;;;;;;;;;5055026;28;20033;-73
2021/12/28 12:20:04;;;;;;;40.10;17.80;;;;;;;;;;5065717;28;20094;-73
2021/12/28 12:22:30;;;;;;;34.77;16.57;;;;;;;;;;5067756;28;20764;-72
2021/12/28 12:25:16;;;;;;;36.33;16.97;;;;;;;;;;5066892;28;20055;-73
2021/12/28 12:27:50;;;;;;;42.00;18.10;;;;;;;;;;5065925;28;20047;-73
2021/12/28 12:30:22;;;;;;;41.20;17.47;;;;;;;;;;5067014;28;20028;-72
2021/12/28 12:33:05;;;;;;;38.20;18.65;;;;;;;;;;5067823;28;20046;-73
2021/12/28 12:35:55;;;;;;;42.67;18.60;;;;;;;;;;5062174;28;20044;-73
2021/12/28 12:38:27;;;;;;;51.83;21.63;;;;;;;;;;5066857;28;20028;-72
2021/12/28 12:41:01;;;;;;;38.23;16.60;;;;;;;;;;5068948;28;20020;-73
2021/12/28 12:43:35;;;;;;;37.00;16.67;;;;;;;;;;5067535;28;20044;-72
2021/12/28 12:46:04;;;;;;;47.00;19.07;;;;;;;;;;5061658;28;20124;-73
2021/12/28 12:48:36;;;;;;;41.40;19.10;;;;;;;;;;5066459;28;20539;-72
2021/12/28 12:51:26;;;;;;;46.13;19.10;;;;;;;;;;5066960;28;20028;-72
2021/12/28 12:54:19;;;;;;;49.80;21.10;;;;;;;;;;5066649;28;20060;-73
2021/12/28 12:56:47;;;;;;;;;;;;;;;;;;5067871;28;20038;-73
2021/12/28 12:59:19;;;;;;;36.53;17.13;;;;;;;;;;5066602;28;20461;-73
2021/12/28 13:01:47;;;;;;;41.10;18.27;;;;;;;;;;5068252;28;20123;-73
2021/12/28 13:04:32;;;;;;;40.53;18.37;;;;;;;;;;5067690;28;20036;-74
2021/12/28 13:07:16;;;;;;;43.93;18.10;;;;;;;;;;5056212;28;20108;-73
2021/12/28 13:09:44;;;;;;;39.00;17.23;;;;;;;;;;5066430;28;20055;-72
2021/12/28 13:12:16;;;;;;;39.60;18.47;;;;;;;;;;5066403;28;20122;-73
2021/12/28 13:14:42;;;;;;;;;;;;;;;;;;5068770;28;20097;-73
2021/12/28 13:17:15;;;;;;;28.73;16.20;;;;;;;;;;5066141;28;19913;-74
2021/12/28 13:20:00;;;;;;;40.90;18.77;;;;;;;;;;5050314;28;20065;-73
2021/12/28 13:22:28;;;;;;;38.00;17.43;;;;;;;;;;5066596;28;20029;-73
2021/12/28 13:24:55;;;;;;;39.20;18.33;;;;;;;;;;5068016;28;20024;-73
2021/12/28 13:27:21;;;;;;;41.50;19.03;;;;;;;;;;5066770;28;20031;-72
2021/12/28 13:29:48;;;;;;;44.97;18.53;;;;;;;;;;5066567;28;20024;-73
2021/12/28 13:32:21;;;;;;;41.53;18.23;;;;;;;;;;5068443;28;20200;-73
2021/12/28 13:34:57;;;;;;;43.00;18.43;;;;;;;;;;5053013;28;20423;-73
2021/12/28 13:38:00;;;;;;;42.33;18.43;;;;;;;;;;5061419;28;20498;-73
2021/12/28 13:40:28;;;;;;;45.87;19.50;;;;;;;;;;5057712;28;20041;-73
2021/12/28 13:43:00;;;;;;;39.57;18.53;;;;;;;;;;5066747;28;20032;-74
2021/12/28 13:45:46;;;;;;;43.13;19.00;;;;;;;;;;5067771;28;20546;-73
2021/12/28 13:48:41;;;;;;;45.97;19.57;;;;;;;;;;5067554;28;20025;-73
2021/12/28 13:51:11;;;;;;;50.63;23.10;;;;;;;;;;5060753;28;20361;-74
2021/12/28 13:53:45;;;;;;;41.93;19.53;;;;;;;;;;5066320;28;20455;-72
2021/12/28 13:56:18;;;;;;;41.53;19.40;;;;;;;;;;5067954;28;20037;-73
2021/12/28 13:58:47;;;;;;;42.87;20.20;;;;;;;;;;5066299;28;20030;-73
2021/12/28 14:01:23;;;;;;;37.43;19.47;;;;;;;;;;5067059;28;20564;-74
2021/12/28 14:04:03;;;;;;;43.93;19.50;;;;;;;;;;5070792;28;20106;-73
2021/12/28 14:06:31;;;;;;;39.17;18.83;;;;;;;;;;5069835;28;20024;-73
2021/12/28 14:08:57;;;;;;;40.47;20.13;;;;;;;;;;5065554;28;20028;-74
2021/12/28 14:11:42;;;;;;;38.70;18.30;;;;;;;;;;5071339;28;20031;-73
2021/12/28 14:14:18;;;;;;;37.10;16.97;;;;;;;;;;5067512;28;20028;-74
2021/12/28 14:17:14;;;;;;;37.67;18.77;;;;;;;;;;5069668;28;20101;-74
2021/12/28 14:19:59;;;;;;;37.63;17.37;;;;;;;;;;5067651;28;20059;-73
2021/12/28 14:22:27;;;;;;;42.63;20.03;;;;;;;;;;5068607;28;20056;-74
2021/12/28 14:24:56;;;;;;;43.03;19.13;;;;;;;;;;5069434;28;20376;-73
2021/12/28 14:27:33;;;;;;;44.47;19.53;;;;;;;;;;5069329;28;20028;-74
2021/12/28 14:30:15;;;;;;;42.47;19.87;;;;;;;;;;5070239;28;20401;-74
2021/12/28 14:32:44;;;;;;;44.00;18.73;;;;;;;;;;5065971;28;20085;-74